sensor_id;sensor_type;location;lat;lon;timestamp;temperature;humidity
3790;DHT22;1910;49.042;9.028;2022-07-15T00:02:07;16.30;99.90
3790;DHT22;1910;49.042;9.028;2022-07-15T00:04:34;16.20;99.90
3790;DHT22;1910;49.042;9.028;2022-07-15T00:07:00;16.10;99.90
3790;DHT22;1910;49.042;9.028;2022-07-15T00:09:26;16.00;99.90
3790;DHT22;1910;49.042;9.028;2022-07-15T00:12:10;15.90;99.90
3790;DHT22;1910;49.042;9.028;2022-07-15T00:14:37;15.90;99.90
3790;DHT22;1910;49.042;9.028;2022-07-15T00:17:04;15.80;99.90
3790;DHT22;1910;49.042;9.028;2022-07-15T00:19:30;15.80;99.90
3790;DHT22;1910;49.042;9.028;2022-07-15T00:21:56;15.80;99.90
3790;DHT22;1910;49.042;9.028;2022-07-15T00:24:22;15.70;99.90
3790;DHT22;1910;49.042;9.028;2022-07-15T00:26:47;15.70;99.90
3790;DHT22;1910;49.042;9.028;2022-07-15T00:29:13;15.70;99.90
3790;DHT22;1910;49.042;9.028;2022-07-15T00:31:39;15.60;99.90
3790;DHT22;1910;49.042;9.028;2022-07-15T00:34:04;15.60;99.90
3790;DHT22;1910;49.042;9.028;2022-07-15T00:36:30;15.60;99.90
3790;DHT22;1910;49.042;9.028;2022-07-15T00:38:55;15.50;99.90
3790;DHT22;1910;49.042;9.028;2022-07-15T00:41:22;15.50;99.90
3790;DHT22;1910;49.042;9.028;2022-07-15T00:43:48;15.50;99.90
3790;DHT22;1910;49.042;9.028;2022-07-15T00:46:21;15.40;99.90
3790;DHT22;1910;49.042;9.028;2022-07-15T00:48:47;15.40;99.90
3790;DHT22;1910;49.042;9.028;2022-07-15T00:51:12;15.50;99.90
3790;DHT22;1910;49.042;9.028;2022-07-15T00:53:39;15.40;99.90
3790;DHT22;1910;49.042;9.028;2022-07-15T00:56:08;15.30;99.90
3790;DHT22;1910;49.042;9.028;2022-07-15T01:01:03;15.30;99.90
3790;DHT22;1910;49.042;9.028;2022-07-15T01:03:30;15.30;99.90
3790;DHT22;1910;49.042;9.028;2022-07-15T01:05:57;15.20;99.90
3790;DHT22;1910;49.042;9.028;2022-07-15T01:08:24;15.20;99.90
3790;DHT22;1910;49.042;9.028;2022-07-15T01:10:51;15.10;99.90
3790;DHT22;1910;49.042;9.028;2022-07-15T01:13:18;15.10;99.90
3790;DHT22;1910;49.042;9.028;2022-07-15T01:15:44;15.20;99.90
3790;DHT22;1910;49.042;9.028;2022-07-15T01:18:10;15.10;99.90
3790;DHT22;1910;49.042;9.028;2022-07-15T01:20:39;15.10;99.90
3790;DHT22;1910;49.042;9.028;2022-07-15T01:23:05;15.00;99.90
3790;DHT22;1910;49.042;9.028;2022-07-15T01:25:31;15.00;99.90
3790;DHT22;1910;49.042;9.028;2022-07-15T01:27:56;15.10;99.90
3790;DHT22;1910;49.042;9.028;2022-07-15T01:32:48;15.10;99.90
3790;DHT22;1910;49.042;9.028;2022-07-15T01:35:13;15.10;99.90
3790;DHT22;1910;49.042;9.028;2022-07-15T01:37:39;15.00;99.90
3790;DHT22;1910;49.042;9.028;2022-07-15T01:40:06;14.90;99.90
3790;DHT22;1910;49.042;9.028;2022-07-15T01:42:32;14.90;99.90
3790;DHT22;1910;49.042;9.028;2022-07-15T01:44:58;14.90;99.90
3790;DHT22;1910;49.042;9.028;2022-07-15T01:47:23;14.80;99.90
3790;DHT22;1910;49.042;9.028;2022-07-15T01:49:49;14.80;99.90
3790;DHT22;1910;49.042;9.028;2022-07-15T01:52:15;14.70;99.90
3790;DHT22;1910;49.042;9.028;2022-07-15T01:54:40;14.80;99.90
3790;DHT22;1910;49.042;9.028;2022-07-15T01:57:06;14.80;99.90
3790;DHT22;1910;49.042;9.028;2022-07-15T01:59:32;15.90;99.90
3790;DHT22;1910;49.042;9.028;2022-07-15T02:01:57;14.60;99.90
3790;DHT22;1910;49.042;9.028;2022-07-15T02:04:23;15.10;99.90
3790;DHT22;1910;49.042;9.028;2022-07-15T02:06:49;14.40;99.90
3790;DHT22;1910;49.042;9.028;2022-07-15T02:09:15;14.40;99.90
3790;DHT22;1910;49.042;9.028;2022-07-15T02:11:41;14.40;99.90
3790;DHT22;1910;49.042;9.028;2022-07-15T02:14:07;14.20;99.90
3790;DHT22;1910;49.042;9.028;2022-07-15T02:16:33;14.30;99.90
3790;DHT22;1910;49.042;9.028;2022-07-15T02:18:59;14.30;99.90
3790;DHT22;1910;49.042;9.028;2022-07-15T02:21:26;14.30;99.90
3790;DHT22;1910;49.042;9.028;2022-07-15T02:23:52;14.30;99.90
3790;DHT22;1910;49.042;9.028;2022-07-15T02:26:18;14.20;99.90
3790;DHT22;1910;49.042;9.028;2022-07-15T02:28:44;14.10;99.90
3790;DHT22;1910;49.042;9.028;2022-07-15T02:31:09;14.60;99.90
3790;DHT22;1910;49.042;9.028;2022-07-15T02:33:35;14.10;99.90
3790;DHT22;1910;49.042;9.028;2022-07-15T02:36:01;14.10;99.90
3790;DHT22;1910;49.042;9.028;2022-07-15T02:38:26;14.00;99.90
3790;DHT22;1910;49.042;9.028;2022-07-15T02:40:52;14.10;99.90
3790;DHT22;1910;49.042;9.028;2022-07-15T02:43:17;14.80;99.90
3790;DHT22;1910;49.042;9.028;2022-07-15T02:45:43;14.00;99.90
3790;DHT22;1910;49.042;9.028;2022-07-15T02:48:09;14.10;99.90
3790;DHT22;1910;49.042;9.028;2022-07-15T02:50:35;14.00;99.90
3790;DHT22;1910;49.042;9.028;2022-07-15T02:53:02;14.00;99.90
3790;DHT22;1910;49.042;9.028;2022-07-15T02:55:27;14.90;99.90
3790;DHT22;1910;49.042;9.028;2022-07-15T02:57:53;13.80;99.90
3790;DHT22;1910;49.042;9.028;2022-07-15T03:00:19;13.80;99.90
3790;DHT22;1910;49.042;9.028;2022-07-15T03:02:46;13.80;99.90
3790;DHT22;1910;49.042;9.028;2022-07-15T03:05:12;13.70;99.90
3790;DHT22;1910;49.042;9.028;2022-07-15T03:07:39;13.80;99.90
3790;DHT22;1910;49.042;9.028;2022-07-15T03:10:06;13.80;99.90
3790;DHT22;1910;49.042;9.028;2022-07-15T03:12:32;13.80;99.90
3790;DHT22;1910;49.042;9.028;2022-07-15T03:14:59;13.80;99.90
3790;DHT22;1910;49.042;9.028;2022-07-15T03:17:25;13.90;99.90
3790;DHT22;1910;49.042;9.028;2022-07-15T03:19:51;13.90;99.90
3790;DHT22;1910;49.042;9.028;2022-07-15T03:22:16;13.90;99.90
3790;DHT22;1910;49.042;9.028;2022-07-15T03:24:42;13.80;99.90
3790;DHT22;1910;49.042;9.028;2022-07-15T03:27:08;13.80;99.90
3790;DHT22;1910;49.042;9.028;2022-07-15T03:29:36;13.90;99.90
3790;DHT22;1910;49.042;9.028;2022-07-15T03:32:02;13.90;99.90
3790;DHT22;1910;49.042;9.028;2022-07-15T03:34:28;14.00;99.90
3790;DHT22;1910;49.042;9.028;2022-07-15T03:36:54;14.10;99.90
3790;DHT22;1910;49.042;9.028;2022-07-15T03:39:20;14.20;99.90
3790;DHT22;1910;49.042;9.028;2022-07-15T03:41:46;14.20;99.90
3790;DHT22;1910;49.042;9.028;2022-07-15T03:44:12;14.20;99.90
3790;DHT22;1910;49.042;9.028;2022-07-15T03:46:39;14.20;99.90
3790;DHT22;1910;49.042;9.028;2022-07-15T03:49:04;14.30;99.90
3790;DHT22;1910;49.042;9.028;2022-07-15T03:51:30;14.40;99.90
3790;DHT22;1910;49.042;9.028;2022-07-15T03:54:03;14.50;99.90
3790;DHT22;1910;49.042;9.028;2022-07-15T03:56:29;14.60;99.90
3790;DHT22;1910;49.042;9.028;2022-07-15T03:58:56;14.80;99.90
3790;DHT22;1910;49.042;9.028;2022-07-15T04:01:22;15.00;99.90
3790;DHT22;1910;49.042;9.028;2022-07-15T04:03:49;15.20;99.90
3790;DHT22;1910;49.042;9.028;2022-07-15T04:06:15;15.20;99.90
3790;DHT22;1910;49.042;9.028;2022-07-15T04:08:42;15.30;99.90
3790;DHT22;1910;49.042;9.028;2022-07-15T04:11:08;15.40;99.90
3790;DHT22;1910;49.042;9.028;2022-07-15T04:13:34;15.50;99.90
3790;DHT22;1910;49.042;9.028;2022-07-15T04:16:00;15.50;99.90
3790;DHT22;1910;49.042;9.028;2022-07-15T04:18:25;15.40;99.90
3790;DHT22;1910;49.042;9.028;2022-07-15T04:20:51;15.40;99.90
3790;DHT22;1910;49.042;9.028;2022-07-15T04:23:16;15.60;99.90
3790;DHT22;1910;49.042;9.028;2022-07-15T04:25:42;15.80;99.90
3790;DHT22;1910;49.042;9.028;2022-07-15T04:28:07;17.10;99.90
3790;DHT22;1910;49.042;9.028;2022-07-15T04:30:33;18.90;99.90
3790;DHT22;1910;49.042;9.028;2022-07-15T04:32:59;20.50;99.90
3790;DHT22;1910;49.042;9.028;2022-07-15T04:35:24;22.00;99.90
3790;DHT22;1910;49.042;9.028;2022-07-15T04:37:50;23.70;99.90
3790;DHT22;1910;49.042;9.028;2022-07-15T04:40:16;25.20;92.90
3790;DHT22;1910;49.042;9.028;2022-07-15T04:42:41;25.50;89.70
3790;DHT22;1910;49.042;9.028;2022-07-15T04:45:07;26.10;86.00
3790;DHT22;1910;49.042;9.028;2022-07-15T04:47:33;27.30;82.60
3790;DHT22;1910;49.042;9.028;2022-07-15T04:49:58;27.20;72.80
3790;DHT22;1910;49.042;9.028;2022-07-15T04:52:46;27.30;75.20
3790;DHT22;1910;49.042;9.028;2022-07-15T04:55:13;27.60;69.70
3790;DHT22;1910;49.042;9.028;2022-07-15T04:57:39;29.20;67.20
3790;DHT22;1910;49.042;9.028;2022-07-15T05:00:06;30.40;64.40
3790;DHT22;1910;49.042;9.028;2022-07-15T05:02:32;32.00;58.80
3790;DHT22;1910;49.042;9.028;2022-07-15T05:07:23;33.80;49.60
3790;DHT22;1910;49.042;9.028;2022-07-15T05:09:49;35.20;48.70
3790;DHT22;1910;49.042;9.028;2022-07-15T05:12:14;34.80;46.90
3790;DHT22;1910;49.042;9.028;2022-07-15T05:17:09;35.50;43.80
3790;DHT22;1910;49.042;9.028;2022-07-15T05:19:35;36.50;41.30
3790;DHT22;1910;49.042;9.028;2022-07-15T05:22:01;37.20;40.90
3790;DHT22;1910;49.042;9.028;2022-07-15T05:24:27;37.30;39.30
3790;DHT22;1910;49.042;9.028;2022-07-15T05:26:52;37.30;38.00
3790;DHT22;1910;49.042;9.028;2022-07-15T05:29:18;36.00;40.00
3790;DHT22;1910;49.042;9.028;2022-07-15T05:31:47;34.50;40.90
3790;DHT22;1910;49.042;9.028;2022-07-15T05:34:13;34.40;42.40
3790;DHT22;1910;49.042;9.028;2022-07-15T05:36:38;35.50;41.90
3790;DHT22;1910;49.042;9.028;2022-07-15T05:39:04;35.60;40.70
3790;DHT22;1910;49.042;9.028;2022-07-15T05:41:29;35.40;41.00
3790;DHT22;1910;49.042;9.028;2022-07-15T05:43:58;35.40;39.80
3790;DHT22;1910;49.042;9.028;2022-07-15T05:46:23;36.50;40.30
3790;DHT22;1910;49.042;9.028;2022-07-15T05:48:49;37.10;39.50
3790;DHT22;1910;49.042;9.028;2022-07-15T05:51:14;38.50;38.50
3790;DHT22;1910;49.042;9.028;2022-07-15T05:53:40;39.20;36.00
3790;DHT22;1910;49.042;9.028;2022-07-15T05:56:06;40.90;35.40
3790;DHT22;1910;49.042;9.028;2022-07-15T05:58:31;41.60;34.10
3790;DHT22;1910;49.042;9.028;2022-07-15T06:10:41;42.50;31.20
3790;DHT22;1910;49.042;9.028;2022-07-15T06:13:07;43.40;30.70
3790;DHT22;1910;49.042;9.028;2022-07-15T06:15:33;42.10;30.50
3790;DHT22;1910;49.042;9.028;2022-07-15T06:17:59;39.90;31.30
3790;DHT22;1910;49.042;9.028;2022-07-15T06:20:25;39.70;31.80
3790;DHT22;1910;49.042;9.028;2022-07-15T06:22:51;40.00;32.20
3790;DHT22;1910;49.042;9.028;2022-07-15T06:25:17;39.80;32.80
3790;DHT22;1910;49.042;9.028;2022-07-15T06:27:43;40.00;32.00
3790;DHT22;1910;49.042;9.028;2022-07-15T06:30:08;39.90;32.00
3790;DHT22;1910;49.042;9.028;2022-07-15T06:32:35;41.50;32.00
3790;DHT22;1910;49.042;9.028;2022-07-15T06:35:01;41.80;31.40
3790;DHT22;1910;49.042;9.028;2022-07-15T06:37:26;40.80;30.30
3790;DHT22;1910;49.042;9.028;2022-07-15T06:39:53;40.40;31.00
3790;DHT22;1910;49.042;9.028;2022-07-15T06:44:46;39.10;31.50
3790;DHT22;1910;49.042;9.028;2022-07-15T06:47:11;39.20;31.90
3790;DHT22;1910;49.042;9.028;2022-07-15T06:49:37;40.70;31.10
3790;DHT22;1910;49.042;9.028;2022-07-15T06:52:04;41.10;29.60
3790;DHT22;1910;49.042;9.028;2022-07-15T06:54:30;40.50;29.40
3790;DHT22;1910;49.042;9.028;2022-07-15T06:56:57;39.70;29.90
3790;DHT22;1910;49.042;9.028;2022-07-15T06:59:23;40.20;30.30
3790;DHT22;1910;49.042;9.028;2022-07-15T07:01:48;41.40;29.80
3790;DHT22;1910;49.042;9.028;2022-07-15T07:04:14;41.80;29.50
3790;DHT22;1910;49.042;9.028;2022-07-15T07:06:39;41.40;28.30
3790;DHT22;1910;49.042;9.028;2022-07-15T07:09:05;41.20;28.20
3790;DHT22;1910;49.042;9.028;2022-07-15T07:11:31;39.50;28.60
3790;DHT22;1910;49.042;9.028;2022-07-15T07:13:58;39.30;29.90
3790;DHT22;1910;49.042;9.028;2022-07-15T07:16:25;39.90;30.30
3790;DHT22;1910;49.042;9.028;2022-07-15T07:18:50;40.60;29.00
3790;DHT22;1910;49.042;9.028;2022-07-15T07:21:17;40.50;28.70
3790;DHT22;1910;49.042;9.028;2022-07-15T07:23:43;40.90;29.30
3790;DHT22;1910;49.042;9.028;2022-07-15T07:26:10;41.30;28.80
3790;DHT22;1910;49.042;9.028;2022-07-15T07:28:36;41.50;28.60
3790;DHT22;1910;49.042;9.028;2022-07-15T07:31:03;42.30;27.90
3790;DHT22;1910;49.042;9.028;2022-07-15T07:33:29;42.40;27.10
3790;DHT22;1910;49.042;9.028;2022-07-15T07:35:55;43.70;27.00
3790;DHT22;1910;49.042;9.028;2022-07-15T07:38:20;44.60;27.20
3790;DHT22;1910;49.042;9.028;2022-07-15T07:40:46;45.80;25.60
3790;DHT22;1910;49.042;9.028;2022-07-15T07:43:16;45.80;24.00
3790;DHT22;1910;49.042;9.028;2022-07-15T07:45:42;45.80;24.20
3790;DHT22;1910;49.042;9.028;2022-07-15T07:48:08;43.90;24.90
3790;DHT22;1910;49.042;9.028;2022-07-15T07:50:34;44.50;24.20
3790;DHT22;1910;49.042;9.028;2022-07-15T07:53:00;44.70;23.90
3790;DHT22;1910;49.042;9.028;2022-07-15T07:55:25;44.70;23.90
3790;DHT22;1910;49.042;9.028;2022-07-15T07:57:56;44.80;22.40
3790;DHT22;1910;49.042;9.028;2022-07-15T08:00:23;44.50;22.20
3790;DHT22;1910;49.042;9.028;2022-07-15T08:02:49;44.10;23.70
3790;DHT22;1910;49.042;9.028;2022-07-15T08:05:15;43.60;24.20
3790;DHT22;1910;49.042;9.028;2022-07-15T08:07:42;42.50;24.00
3790;DHT22;1910;49.042;9.028;2022-07-15T08:10:08;41.70;24.50
3790;DHT22;1910;49.042;9.028;2022-07-15T08:12:35;40.90;25.90
3790;DHT22;1910;49.042;9.028;2022-07-15T08:15:07;40.70;25.40
3790;DHT22;1910;49.042;9.028;2022-07-15T08:17:33;42.00;25.40
3790;DHT22;1910;49.042;9.028;2022-07-15T08:19:58;42.00;25.40
3790;DHT22;1910;49.042;9.028;2022-07-15T08:22:24;41.60;24.30
3790;DHT22;1910;49.042;9.028;2022-07-15T08:24:50;39.90;24.60
3790;DHT22;1910;49.042;9.028;2022-07-15T08:27:16;38.80;25.60
3790;DHT22;1910;49.042;9.028;2022-07-15T08:29:42;36.90;26.60
3790;DHT22;1910;49.042;9.028;2022-07-15T08:32:07;36.40;27.70
3790;DHT22;1910;49.042;9.028;2022-07-15T08:34:33;37.40;26.80
3790;DHT22;1910;49.042;9.028;2022-07-15T08:36:58;38.60;26.30
3790;DHT22;1910;49.042;9.028;2022-07-15T08:39:24;38.50;26.60
3790;DHT22;1910;49.042;9.028;2022-07-15T08:41:51;39.50;25.90
3790;DHT22;1910;49.042;9.028;2022-07-15T08:44:17;39.80;25.80
3790;DHT22;1910;49.042;9.028;2022-07-15T08:46:46;40.10;26.50
3790;DHT22;1910;49.042;9.028;2022-07-15T08:49:14;39.90;25.50
3790;DHT22;1910;49.042;9.028;2022-07-15T08:51:43;39.30;26.10
3790;DHT22;1910;49.042;9.028;2022-07-15T08:54:10;39.00;27.10
3790;DHT22;1910;49.042;9.028;2022-07-15T08:56:36;39.30;26.20
3790;DHT22;1910;49.042;9.028;2022-07-15T08:59:04;38.60;26.40
3790;DHT22;1910;49.042;9.028;2022-07-15T09:01:31;39.00;27.00
3790;DHT22;1910;49.042;9.028;2022-07-15T09:03:57;38.10;26.50
3790;DHT22;1910;49.042;9.028;2022-07-15T09:06:50;39.60;26.20
3790;DHT22;1910;49.042;9.028;2022-07-15T09:14:25;37.40;27.50
3790;DHT22;1910;49.042;9.028;2022-07-15T09:20:08;35.80;27.90
3790;DHT22;1910;49.042;9.028;2022-07-15T09:22:48;36.10;28.30
3790;DHT22;1910;49.042;9.028;2022-07-15T09:25:14;34.40;29.10
3790;DHT22;1910;49.042;9.028;2022-07-15T09:27:42;35.50;29.20
3790;DHT22;1910;49.042;9.028;2022-07-15T09:30:17;35.60;29.00
3790;DHT22;1910;49.042;9.028;2022-07-15T09:33:05;37.00;28.80
3790;DHT22;1910;49.042;9.028;2022-07-15T09:35:49;38.00;27.90
3790;DHT22;1910;49.042;9.028;2022-07-15T09:38:44;39.30;26.90
3790;DHT22;1910;49.042;9.028;2022-07-15T09:44:26;37.60;27.30
3790;DHT22;1910;49.042;9.028;2022-07-15T09:46:46;36.30;27.50
3790;DHT22;1910;49.042;9.028;2022-07-15T09:52:09;35.30;29.30
3790;DHT22;1910;49.042;9.028;2022-07-15T09:54:54;34.80;29.30
3790;DHT22;1910;49.042;9.028;2022-07-15T09:59:51;35.60;29.80
3790;DHT22;1910;49.042;9.028;2022-07-15T10:02:17;36.80;28.50
3790;DHT22;1910;49.042;9.028;2022-07-15T10:04:42;38.10;28.00
3790;DHT22;1910;49.042;9.028;2022-07-15T10:07:11;38.90;28.10
3790;DHT22;1910;49.042;9.028;2022-07-15T10:09:37;39.10;27.20
3790;DHT22;1910;49.042;9.028;2022-07-15T10:12:13;37.50;27.20
3790;DHT22;1910;49.042;9.028;2022-07-15T10:17:35;36.40;28.10
3790;DHT22;1910;49.042;9.028;2022-07-15T10:20:37;36.40;28.50
3790;DHT22;1910;49.042;9.028;2022-07-15T10:25:46;35.50;28.60
3790;DHT22;1910;49.042;9.028;2022-07-15T10:31:17;36.00;29.20
3790;DHT22;1910;49.042;9.028;2022-07-15T10:39:24;34.40;29.40
3790;DHT22;1910;49.042;9.028;2022-07-15T10:41:55;34.10;30.70
3790;DHT22;1910;49.042;9.028;2022-07-15T10:44:29;31.90;32.90
3790;DHT22;1910;49.042;9.028;2022-07-15T10:49:41;29.40;35.70
3790;DHT22;1910;49.042;9.028;2022-07-15T10:55:04;28.60;36.40
3790;DHT22;1910;49.042;9.028;2022-07-15T10:57:56;27.70;37.40
3790;DHT22;1910;49.042;9.028;2022-07-15T11:00:29;27.60;38.00
3790;DHT22;1910;49.042;9.028;2022-07-15T11:05:35;27.70;38.20
3790;DHT22;1910;49.042;9.028;2022-07-15T11:10:57;26.90;39.80
3790;DHT22;1910;49.042;9.028;2022-07-15T11:13:33;26.30;41.30
3790;DHT22;1910;49.042;9.028;2022-07-15T11:15:59;26.00;41.70
3790;DHT22;1910;49.042;9.028;2022-07-15T11:18:25;26.20;42.60
3790;DHT22;1910;49.042;9.028;2022-07-15T11:20:52;26.40;42.00
3790;DHT22;1910;49.042;9.028;2022-07-15T11:23:19;26.40;42.10
3790;DHT22;1910;49.042;9.028;2022-07-15T11:25:47;26.80;41.60
3790;DHT22;1910;49.042;9.028;2022-07-15T11:28:14;27.40;41.60
3790;DHT22;1910;49.042;9.028;2022-07-15T11:33:12;26.90;40.60
3790;DHT22;1910;49.042;9.028;2022-07-15T11:35:47;26.70;41.00
3790;DHT22;1910;49.042;9.028;2022-07-15T11:38:13;26.30;42.50
3790;DHT22;1910;49.042;9.028;2022-07-15T11:40:46;26.30;42.80
3790;DHT22;1910;49.042;9.028;2022-07-15T11:43:31;26.50;41.40
3790;DHT22;1910;49.042;9.028;2022-07-15T11:46:15;26.80;42.10
3790;DHT22;1910;49.042;9.028;2022-07-15T11:48:41;26.20;41.40
3790;DHT22;1910;49.042;9.028;2022-07-15T11:51:09;26.30;42.60
3790;DHT22;1910;49.042;9.028;2022-07-15T11:53:45;27.00;43.30
3790;DHT22;1910;49.042;9.028;2022-07-15T11:56:14;26.80;41.10
3790;DHT22;1910;49.042;9.028;2022-07-15T11:58:42;26.60;41.10
3790;DHT22;1910;49.042;9.028;2022-07-15T12:01:11;27.10;41.70
3790;DHT22;1910;49.042;9.028;2022-07-15T12:03:44;27.40;40.40
3790;DHT22;1910;49.042;9.028;2022-07-15T12:06:16;27.30;41.00
3790;DHT22;1910;49.042;9.028;2022-07-15T12:11:20;27.20;40.70
3790;DHT22;1910;49.042;9.028;2022-07-15T12:14:10;27.40;40.10
3790;DHT22;1910;49.042;9.028;2022-07-15T12:16:50;27.80;39.40
3790;DHT22;1910;49.042;9.028;2022-07-15T12:19:26;27.90;39.70
3790;DHT22;1910;49.042;9.028;2022-07-15T12:21:55;27.10;40.70
3790;DHT22;1910;49.042;9.028;2022-07-15T12:24:25;27.00;41.10
3790;DHT22;1910;49.042;9.028;2022-07-15T12:29:33;26.80;42.10
3790;DHT22;1910;49.042;9.028;2022-07-15T12:32:06;26.40;41.90
3790;DHT22;1910;49.042;9.028;2022-07-15T12:35:02;26.40;42.10
3790;DHT22;1910;49.042;9.028;2022-07-15T12:42:21;26.20;43.40
3790;DHT22;1910;49.042;9.028;2022-07-15T12:45:05;26.50;42.50
3790;DHT22;1910;49.042;9.028;2022-07-15T12:47:31;26.90;42.60
3790;DHT22;1910;49.042;9.028;2022-07-15T12:49:59;27.00;43.20
3790;DHT22;1910;49.042;9.028;2022-07-15T12:52:39;27.40;43.20
3790;DHT22;1910;49.042;9.028;2022-07-15T12:55:20;28.20;42.70
3790;DHT22;1910;49.042;9.028;2022-07-15T12:57:46;28.50;40.60
3790;DHT22;1910;49.042;9.028;2022-07-15T13:00:16;28.10;41.00
3790;DHT22;1910;49.042;9.028;2022-07-15T13:05:23;27.50;42.20
3790;DHT22;1910;49.042;9.028;2022-07-15T13:07:49;27.60;41.50
3790;DHT22;1910;49.042;9.028;2022-07-15T13:10:14;27.00;41.60
3790;DHT22;1910;49.042;9.028;2022-07-15T13:12:40;26.70;42.50
3790;DHT22;1910;49.042;9.028;2022-07-15T13:15:06;26.70;42.90
3790;DHT22;1910;49.042;9.028;2022-07-15T13:17:32;26.80;41.70
3790;DHT22;1910;49.042;9.028;2022-07-15T13:19:57;26.80;42.40
3790;DHT22;1910;49.042;9.028;2022-07-15T13:22:23;26.60;43.20
3790;DHT22;1910;49.042;9.028;2022-07-15T13:24:49;26.80;43.20
3790;DHT22;1910;49.042;9.028;2022-07-15T13:27:15;26.50;43.00
3790;DHT22;1910;49.042;9.028;2022-07-15T13:29:40;26.40;43.50
3790;DHT22;1910;49.042;9.028;2022-07-15T13:32:06;26.90;44.50
3790;DHT22;1910;49.042;9.028;2022-07-15T13:34:32;26.80;43.40
3790;DHT22;1910;49.042;9.028;2022-07-15T13:36:57;26.70;42.70
3790;DHT22;1910;49.042;9.028;2022-07-15T13:39:23;26.60;42.80
3790;DHT22;1910;49.042;9.028;2022-07-15T13:41:48;25.90;42.90
3790;DHT22;1910;49.042;9.028;2022-07-15T13:44:14;25.90;44.10
3790;DHT22;1910;49.042;9.028;2022-07-15T13:46:39;25.90;43.70
3790;DHT22;1910;49.042;9.028;2022-07-15T13:49:05;25.90;44.10
3790;DHT22;1910;49.042;9.028;2022-07-15T13:51:30;26.10;44.60
3790;DHT22;1910;49.042;9.028;2022-07-15T13:53:57;26.00;43.20
3790;DHT22;1910;49.042;9.028;2022-07-15T13:56:22;25.80;43.90
3790;DHT22;1910;49.042;9.028;2022-07-15T13:58:48;25.80;44.00
3790;DHT22;1910;49.042;9.028;2022-07-15T14:01:15;26.00;45.40
3790;DHT22;1910;49.042;9.028;2022-07-15T14:03:41;26.30;44.40
3790;DHT22;1910;49.042;9.028;2022-07-15T14:06:07;26.30;44.40
3790;DHT22;1910;49.042;9.028;2022-07-15T14:08:34;26.40;43.70
3790;DHT22;1910;49.042;9.028;2022-07-15T14:11:00;26.10;44.20
3790;DHT22;1910;49.042;9.028;2022-07-15T14:13:26;26.20;44.80
3790;DHT22;1910;49.042;9.028;2022-07-15T14:15:51;26.40;44.30
3790;DHT22;1910;49.042;9.028;2022-07-15T14:18:17;26.50;43.90
3790;DHT22;1910;49.042;9.028;2022-07-15T14:20:42;26.50;44.20
3790;DHT22;1910;49.042;9.028;2022-07-15T14:23:11;26.40;44.30
3790;DHT22;1910;49.042;9.028;2022-07-15T14:25:37;26.20;43.30
3790;DHT22;1910;49.042;9.028;2022-07-15T14:28:05;25.80;43.50
3790;DHT22;1910;49.042;9.028;2022-07-15T14:30:31;25.90;43.90
3790;DHT22;1910;49.042;9.028;2022-07-15T14:32:59;26.20;42.50
3790;DHT22;1910;49.042;9.028;2022-07-15T14:35:24;26.20;43.10
3790;DHT22;1910;49.042;9.028;2022-07-15T14:37:50;26.20;43.10
3790;DHT22;1910;49.042;9.028;2022-07-15T14:40:16;26.20;42.90
3790;DHT22;1910;49.042;9.028;2022-07-15T14:42:42;25.80;42.80
3790;DHT22;1910;49.042;9.028;2022-07-15T14:45:08;25.70;43.00
3790;DHT22;1910;49.042;9.028;2022-07-15T14:47:34;27.00;43.60
3790;DHT22;1910;49.042;9.028;2022-07-15T14:49:59;25.70;43.10
3790;DHT22;1910;49.042;9.028;2022-07-15T14:52:25;25.70;44.70
3790;DHT22;1910;49.042;9.028;2022-07-15T14:54:50;25.40;43.20
3790;DHT22;1910;49.042;9.028;2022-07-15T14:57:16;25.50;44.10
3790;DHT22;1910;49.042;9.028;2022-07-15T14:59:42;25.60;43.60
3790;DHT22;1910;49.042;9.028;2022-07-15T15:02:09;25.60;43.60
3790;DHT22;1910;49.042;9.028;2022-07-15T15:04:35;25.70;43.50
3790;DHT22;1910;49.042;9.028;2022-07-15T15:07:01;25.70;42.80
3790;DHT22;1910;49.042;9.028;2022-07-15T15:09:27;25.80;43.60
3790;DHT22;1910;49.042;9.028;2022-07-15T15:11:53;26.10;43.50
3790;DHT22;1910;49.042;9.028;2022-07-15T15:14:18;26.10;42.50
3790;DHT22;1910;49.042;9.028;2022-07-15T15:16:44;25.90;43.30
3790;DHT22;1910;49.042;9.028;2022-07-15T15:19:09;26.00;43.60
3790;DHT22;1910;49.042;9.028;2022-07-15T15:21:36;25.70;43.50
3790;DHT22;1910;49.042;9.028;2022-07-15T15:24:02;25.90;43.50
3790;DHT22;1910;49.042;9.028;2022-07-15T15:26:28;26.00;44.10
3790;DHT22;1910;49.042;9.028;2022-07-15T15:28:55;25.70;43.00
3790;DHT22;1910;49.042;9.028;2022-07-15T15:31:22;25.50;43.30
3790;DHT22;1910;49.042;9.028;2022-07-15T15:33:48;25.60;44.50
3790;DHT22;1910;49.042;9.028;2022-07-15T15:36:14;25.70;44.60
3790;DHT22;1910;49.042;9.028;2022-07-15T15:38:40;26.00;44.50
3790;DHT22;1910;49.042;9.028;2022-07-15T15:41:06;26.10;44.30
3790;DHT22;1910;49.042;9.028;2022-07-15T15:43:32;26.10;44.20
3790;DHT22;1910;49.042;9.028;2022-07-15T15:45:58;25.70;44.60
3790;DHT22;1910;49.042;9.028;2022-07-15T15:48:24;25.60;44.30
3790;DHT22;1910;49.042;9.028;2022-07-15T15:50:50;25.40;44.90
3790;DHT22;1910;49.042;9.028;2022-07-15T15:53:16;25.20;44.50
3790;DHT22;1910;49.042;9.028;2022-07-15T15:55:42;25.20;45.80
3790;DHT22;1910;49.042;9.028;2022-07-15T15:58:07;25.20;45.50
3790;DHT22;1910;49.042;9.028;2022-07-15T16:00:33;25.10;46.00
3790;DHT22;1910;49.042;9.028;2022-07-15T16:03:00;24.80;45.40
3790;DHT22;1910;49.042;9.028;2022-07-15T16:05:25;24.80;46.00
3790;DHT22;1910;49.042;9.028;2022-07-15T16:07:51;25.00;46.00
3790;DHT22;1910;49.042;9.028;2022-07-15T16:10:16;25.10;46.40
3790;DHT22;1910;49.042;9.028;2022-07-15T16:12:42;25.00;45.50
3790;DHT22;1910;49.042;9.028;2022-07-15T16:15:08;25.00;46.20
3790;DHT22;1910;49.042;9.028;2022-07-15T16:17:33;25.00;46.30
3790;DHT22;1910;49.042;9.028;2022-07-15T16:19:59;25.10;46.00
3790;DHT22;1910;49.042;9.028;2022-07-15T16:22:25;25.10;46.40
3790;DHT22;1910;49.042;9.028;2022-07-15T16:25:09;25.10;45.20
3790;DHT22;1910;49.042;9.028;2022-07-15T16:27:35;25.10;46.00
3790;DHT22;1910;49.042;9.028;2022-07-15T16:30:00;25.00;45.90
3790;DHT22;1910;49.042;9.028;2022-07-15T16:32:26;24.90;45.80
3790;DHT22;1910;49.042;9.028;2022-07-15T16:34:52;25.00;46.20
3790;DHT22;1910;49.042;9.028;2022-07-15T16:37:17;24.80;46.00
3790;DHT22;1910;49.042;9.028;2022-07-15T16:39:43;24.80;45.60
3790;DHT22;1910;49.042;9.028;2022-07-15T16:42:09;24.80;46.20
3790;DHT22;1910;49.042;9.028;2022-07-15T16:44:34;24.80;46.50
3790;DHT22;1910;49.042;9.028;2022-07-15T16:47:00;24.80;46.60
3790;DHT22;1910;49.042;9.028;2022-07-15T16:49:25;24.70;46.60
3790;DHT22;1910;49.042;9.028;2022-07-15T16:51:52;24.70;45.80
3790;DHT22;1910;49.042;9.028;2022-07-15T16:54:17;24.70;46.40
3790;DHT22;1910;49.042;9.028;2022-07-15T16:56:43;24.60;46.50
3790;DHT22;1910;49.042;9.028;2022-07-15T16:59:09;24.50;47.10
3790;DHT22;1910;49.042;9.028;2022-07-15T17:01:34;24.60;47.20
3790;DHT22;1910;49.042;9.028;2022-07-15T17:04:00;24.50;46.30
3790;DHT22;1910;49.042;9.028;2022-07-15T17:06:25;24.30;46.40
3790;DHT22;1910;49.042;9.028;2022-07-15T17:08:51;24.40;47.00
3790;DHT22;1910;49.042;9.028;2022-07-15T17:11:16;23.90;46.40
3790;DHT22;1910;49.042;9.028;2022-07-15T17:13:42;24.50;46.90
3790;DHT22;1910;49.042;9.028;2022-07-15T17:16:07;24.40;46.30
3790;DHT22;1910;49.042;9.028;2022-07-15T17:18:33;24.30;47.10
3790;DHT22;1910;49.042;9.028;2022-07-15T17:20:59;24.30;47.00
3790;DHT22;1910;49.042;9.028;2022-07-15T17:23:24;24.20;46.90